sensor_id;sensor_type;location;lat;lon;timestamp;P1;durP1;ratioP1;P2;durP2;ratioP2
80201;SDS011;69521;54.454;9.928;2023-05-10T00:00:21;3.75;;;1.90;;
80201;SDS011;69521;54.454;9.928;2023-05-10T00:02:48;3.03;;;1.70;;
80201;SDS011;69521;54.454;9.928;2023-05-10T00:05:14;6.68;;;2.35;;
80201;SDS011;69521;54.454;9.928;2023-05-10T00:07:39;3.53;;;1.75;;
80201;SDS011;69521;54.454;9.928;2023-05-10T00:10:05;4.57;;;1.88;;
80201;SDS011;69521;54.454;9.928;2023-05-10T00:12:30;2.88;;;1.88;;
80201;SDS011;69521;54.454;9.928;2023-05-10T00:14:56;3.60;;;1.87;;
80201;SDS011;69521;54.454;9.928;2023-05-10T00:17:21;7.78;;;2.03;;
80201;SDS011;69521;54.454;9.928;2023-05-10T00:19:46;2.60;;;1.70;;
80201;SDS011;69521;54.454;9.928;2023-05-10T00:22:12;3.97;;;1.98;;
80201;SDS011;69521;54.454;9.928;2023-05-10T00:24:37;4.30;;;2.05;;
80201;SDS011;69521;54.454;9.928;2023-05-10T00:27:02;6.70;;;1.70;;
80201;SDS011;69521;54.454;9.928;2023-05-10T00:29:29;4.43;;;2.00;;
80201;SDS011;69521;54.454;9.928;2023-05-10T00:31:54;4.78;;;2.10;;
80201;SDS011;69521;54.454;9.928;2023-05-10T00:34:19;8.13;;;1.97;;
80201;SDS011;69521;54.454;9.928;2023-05-10T00:36:45;3.30;;;1.65;;
80201;SDS011;69521;54.454;9.928;2023-05-10T00:39:10;3.75;;;1.92;;
80201;SDS011;69521;54.454;9.928;2023-05-10T00:41:35;6.72;;;2.15;;
80201;SDS011;69521;54.454;9.928;2023-05-10T00:44:01;4.18;;;1.88;;
80201;SDS011;69521;54.454;9.928;2023-05-10T00:46:27;6.47;;;2.33;;
80201;SDS011;69521;54.454;9.928;2023-05-10T00:48:53;2.70;;;1.73;;
80201;SDS011;69521;54.454;9.928;2023-05-10T00:51:18;3.78;;;1.90;;
80201;SDS011;69521;54.454;9.928;2023-05-10T00:53:45;3.92;;;2.05;;
80201;SDS011;69521;54.454;9.928;2023-05-10T00:56:11;6.55;;;1.80;;
80201;SDS011;69521;54.454;9.928;2023-05-10T00:58:37;6.50;;;2.35;;
80201;SDS011;69521;54.454;9.928;2023-05-10T01:01:04;5.00;;;1.95;;
80201;SDS011;69521;54.454;9.928;2023-05-10T01:03:29;4.25;;;2.20;;
80201;SDS011;69521;54.454;9.928;2023-05-10T01:05:56;4.68;;;2.15;;
80201;SDS011;69521;54.454;9.928;2023-05-10T01:08:21;6.57;;;2.10;;
80201;SDS011;69521;54.454;9.928;2023-05-10T01:10:47;3.60;;;1.92;;
80201;SDS011;69521;54.454;9.928;2023-05-10T01:13:14;3.85;;;1.67;;
80201;SDS011;69521;54.454;9.928;2023-05-10T01:15:53;5.13;;;2.30;;
80201;SDS011;69521;54.454;9.928;2023-05-10T01:18:19;3.42;;;1.95;;
80201;SDS011;69521;54.454;9.928;2023-05-10T01:20:47;7.82;;;3.45;;
80201;SDS011;69521;54.454;9.928;2023-05-10T01:26:14;5.47;;;2.67;;
80201;SDS011;69521;54.454;9.928;2023-05-10T01:37:13;4.25;;;2.40;;
80201;SDS011;69521;54.454;9.928;2023-05-10T01:39:46;3.80;;;2.45;;
80201;SDS011;69521;54.454;9.928;2023-05-10T01:42:19;5.93;;;3.03;;
80201;SDS011;69521;54.454;9.928;2023-05-10T01:47:43;3.90;;;2.05;;
80201;SDS011;69521;54.454;9.928;2023-05-10T01:50:18;5.55;;;1.77;;
80201;SDS011;69521;54.454;9.928;2023-05-10T01:52:49;3.15;;;2.25;;
80201;SDS011;69521;54.454;9.928;2023-05-10T01:55:20;3.38;;;2.40;;
80201;SDS011;69521;54.454;9.928;2023-05-10T01:57:48;3.50;;;1.85;;
80201;SDS011;69521;54.454;9.928;2023-05-10T02:00:17;6.18;;;2.85;;
80201;SDS011;69521;54.454;9.928;2023-05-10T02:02:45;4.80;;;2.00;;
80201;SDS011;69521;54.454;9.928;2023-05-10T02:05:12;4.72;;;2.00;;
80201;SDS011;69521;54.454;9.928;2023-05-10T02:07:40;3.85;;;2.10;;
80201;SDS011;69521;54.454;9.928;2023-05-10T02:10:07;3.47;;;2.13;;
80201;SDS011;69521;54.454;9.928;2023-05-10T02:12:35;10.85;;;2.88;;
80201;SDS011;69521;54.454;9.928;2023-05-10T02:15:03;7.43;;;2.40;;
80201;SDS011;69521;54.454;9.928;2023-05-10T02:19:58;2.65;;;1.80;;
80201;SDS011;69521;54.454;9.928;2023-05-10T02:22:25;7.70;;;2.55;;
80201;SDS011;69521;54.454;9.928;2023-05-10T02:24:53;4.18;;;2.20;;
80201;SDS011;69521;54.454;9.928;2023-05-10T02:27:20;5.10;;;2.20;;
80201;SDS011;69521;54.454;9.928;2023-05-10T02:29:48;6.45;;;2.30;;
80201;SDS011;69521;54.454;9.928;2023-05-10T02:32:14;3.67;;;2.50;;
80201;SDS011;69521;54.454;9.928;2023-05-10T02:34:41;2.75;;;1.90;;
80201;SDS011;69521;54.454;9.928;2023-05-10T02:37:07;7.95;;;2.33;;
80201;SDS011;69521;54.454;9.928;2023-05-10T02:39:33;5.30;;;2.50;;
80201;SDS011;69521;54.454;9.928;2023-05-10T02:41:59;5.15;;;2.15;;
80201;SDS011;69521;54.454;9.928;2023-05-10T02:44:27;3.83;;;2.10;;
80201;SDS011;69521;54.454;9.928;2023-05-10T02:46:55;3.70;;;2.33;;
80201;SDS011;69521;54.454;9.928;2023-05-10T02:49:22;3.90;;;2.22;;
80201;SDS011;69521;54.454;9.928;2023-05-10T02:51:49;4.82;;;2.00;;
80201;SDS011;69521;54.454;9.928;2023-05-10T02:54:20;3.38;;;2.35;;
80201;SDS011;69521;54.454;9.928;2023-05-10T02:56:56;5.78;;;2.65;;
80201;SDS011;69521;54.454;9.928;2023-05-10T02:59:23;4.15;;;2.20;;
80201;SDS011;69521;54.454;9.928;2023-05-10T03:01:48;6.22;;;2.40;;
80201;SDS011;69521;54.454;9.928;2023-05-10T03:04:13;4.97;;;2.40;;
80201;SDS011;69521;54.454;9.928;2023-05-10T03:06:39;2.85;;;2.25;;
80201;SDS011;69521;54.454;9.928;2023-05-10T03:09:04;3.33;;;2.47;;
80201;SDS011;69521;54.454;9.928;2023-05-10T03:11:43;3.10;;;2.33;;
80201;SDS011;69521;54.454;9.928;2023-05-10T03:17:10;5.80;;;2.45;;
80201;SDS011;69521;54.454;9.928;2023-05-10T03:22:25;4.45;;;2.40;;
80201;SDS011;69521;54.454;9.928;2023-05-10T03:24:55;5.00;;;2.40;;
80201;SDS011;69521;54.454;9.928;2023-05-10T03:27:23;4.63;;;2.67;;
80201;SDS011;69521;54.454;9.928;2023-05-10T03:29:50;5.32;;;2.42;;
80201;SDS011;69521;54.454;9.928;2023-05-10T03:32:16;4.88;;;2.38;;
80201;SDS011;69521;54.454;9.928;2023-05-10T03:34:42;3.78;;;2.30;;
80201;SDS011;69521;54.454;9.928;2023-05-10T03:37:10;3.50;;;2.70;;
80201;SDS011;69521;54.454;9.928;2023-05-10T03:39:35;3.92;;;2.67;;
80201;SDS011;69521;54.454;9.928;2023-05-10T03:42:01;4.43;;;2.38;;
80201;SDS011;69521;54.454;9.928;2023-05-10T03:44:27;4.90;;;2.85;;
80201;SDS011;69521;54.454;9.928;2023-05-10T03:46:52;5.20;;;2.53;;
80201;SDS011;69521;54.454;9.928;2023-05-10T03:49:20;3.47;;;1.88;;
80201;SDS011;69521;54.454;9.928;2023-05-10T03:51:48;6.20;;;2.35;;
80201;SDS011;69521;54.454;9.928;2023-05-10T03:54:33;3.97;;;2.38;;
80201;SDS011;69521;54.454;9.928;2023-05-10T03:56:58;3.55;;;2.40;;
80201;SDS011;69521;54.454;9.928;2023-05-10T03:59:25;5.90;;;2.40;;
80201;SDS011;69521;54.454;9.928;2023-05-10T04:01:51;5.55;;;2.55;;
80201;SDS011;69521;54.454;9.928;2023-05-10T04:04:16;4.03;;;2.13;;
80201;SDS011;69521;54.454;9.928;2023-05-10T04:06:43;4.57;;;2.30;;
80201;SDS011;69521;54.454;9.928;2023-05-10T04:09:09;7.88;;;2.70;;
80201;SDS011;69521;54.454;9.928;2023-05-10T04:11:34;4.90;;;2.70;;
80201;SDS011;69521;54.454;9.928;2023-05-10T04:14:00;4.43;;;2.60;;
80201;SDS011;69521;54.454;9.928;2023-05-10T04:16:25;4.80;;;2.30;;
80201;SDS011;69521;54.454;9.928;2023-05-10T04:18:50;4.38;;;2.45;;
80201;SDS011;69521;54.454;9.928;2023-05-10T04:21:16;5.05;;;2.30;;
80201;SDS011;69521;54.454;9.928;2023-05-10T04:23:41;6.10;;;2.78;;
80201;SDS011;69521;54.454;9.928;2023-05-10T04:26:07;4.57;;;2.65;;
80201;SDS011;69521;54.454;9.928;2023-05-10T04:28:32;4.65;;;2.20;;
80201;SDS011;69521;54.454;9.928;2023-05-10T04:31:04;4.18;;;2.55;;
80201;SDS011;69521;54.454;9.928;2023-05-10T04:33:31;4.00;;;2.60;;
80201;SDS011;69521;54.454;9.928;2023-05-10T04:35:56;4.55;;;2.13;;
80201;SDS011;69521;54.454;9.928;2023-05-10T04:38:22;3.72;;;2.45;;
80201;SDS011;69521;54.454;9.928;2023-05-10T04:40:47;5.90;;;2.92;;
80201;SDS011;69521;54.454;9.928;2023-05-10T04:43:12;4.93;;;2.30;;
80201;SDS011;69521;54.454;9.928;2023-05-10T04:45:38;4.50;;;2.40;;
80201;SDS011;69521;54.454;9.928;2023-05-10T04:48:03;6.38;;;2.40;;
80201;SDS011;69521;54.454;9.928;2023-05-10T04:50:29;6.95;;;3.15;;
80201;SDS011;69521;54.454;9.928;2023-05-10T04:52:54;4.25;;;2.58;;
80201;SDS011;69521;54.454;9.928;2023-05-10T04:55:20;3.43;;;2.53;;
80201;SDS011;69521;54.454;9.928;2023-05-10T04:57:46;6.00;;;2.53;;
80201;SDS011;69521;54.454;9.928;2023-05-10T05:00:11;6.82;;;2.80;;
80201;SDS011;69521;54.454;9.928;2023-05-10T05:02:37;4.78;;;2.97;;
80201;SDS011;69521;54.454;9.928;2023-05-10T05:05:02;7.93;;;3.05;;
80201;SDS011;69521;54.454;9.928;2023-05-10T05:07:28;11.90;;;2.78;;
80201;SDS011;69521;54.454;9.928;2023-05-10T05:09:53;10.13;;;2.65;;
80201;SDS011;69521;54.454;9.928;2023-05-10T05:12:18;4.72;;;2.72;;
80201;SDS011;69521;54.454;9.928;2023-05-10T05:14:44;6.30;;;2.63;;
80201;SDS011;69521;54.454;9.928;2023-05-10T05:17:09;7.87;;;3.00;;
80201;SDS011;69521;54.454;9.928;2023-05-10T05:19:34;7.05;;;3.03;;
80201;SDS011;69521;54.454;9.928;2023-05-10T05:22:00;6.03;;;2.67;;
80201;SDS011;69521;54.454;9.928;2023-05-10T05:24:26;4.03;;;2.58;;
80201;SDS011;69521;54.454;9.928;2023-05-10T05:26:51;5.50;;;3.13;;
80201;SDS011;69521;54.454;9.928;2023-05-10T05:29:16;4.13;;;3.00;;
80201;SDS011;69521;54.454;9.928;2023-05-10T05:31:41;9.57;;;3.40;;
80201;SDS011;69521;54.454;9.928;2023-05-10T05:34:07;4.75;;;2.67;;
80201;SDS011;69521;54.454;9.928;2023-05-10T05:36:35;4.43;;;2.53;;
80201;SDS011;69521;54.454;9.928;2023-05-10T05:39:03;4.75;;;2.63;;
80201;SDS011;69521;54.454;9.928;2023-05-10T05:41:28;4.22;;;2.80;;
80201;SDS011;69521;54.454;9.928;2023-05-10T05:43:53;9.03;;;3.43;;
80201;SDS011;69521;54.454;9.928;2023-05-10T05:46:19;3.70;;;2.42;;
80201;SDS011;69521;54.454;9.928;2023-05-10T05:48:44;6.47;;;2.65;;
80201;SDS011;69521;54.454;9.928;2023-05-10T05:51:09;8.32;;;2.97;;
80201;SDS011;69521;54.454;9.928;2023-05-10T05:53:35;3.70;;;2.70;;
80201;SDS011;69521;54.454;9.928;2023-05-10T05:56:01;5.32;;;3.17;;
80201;SDS011;69521;54.454;9.928;2023-05-10T05:58:26;5.30;;;2.63;;
80201;SDS011;69521;54.454;9.928;2023-05-10T06:00:52;6.75;;;2.60;;
80201;SDS011;69521;54.454;9.928;2023-05-10T06:03:18;4.30;;;2.90;;
80201;SDS011;69521;54.454;9.928;2023-05-10T06:05:44;5.47;;;2.50;;
80201;SDS011;69521;54.454;9.928;2023-05-10T06:08:09;3.78;;;2.33;;
80201;SDS011;69521;54.454;9.928;2023-05-10T06:10:35;4.07;;;2.47;;
80201;SDS011;69521;54.454;9.928;2023-05-10T06:13:00;3.97;;;2.65;;
80201;SDS011;69521;54.454;9.928;2023-05-10T06:15:26;11.32;;;2.45;;
80201;SDS011;69521;54.454;9.928;2023-05-10T06:17:52;4.68;;;3.22;;
80201;SDS011;69521;54.454;9.928;2023-05-10T06:20:17;4.97;;;2.60;;
80201;SDS011;69521;54.454;9.928;2023-05-10T06:22:43;4.70;;;2.70;;
80201;SDS011;69521;54.454;9.928;2023-05-10T06:25:09;5.93;;;3.92;;
80201;SDS011;69521;54.454;9.928;2023-05-10T06:27:34;6.47;;;3.20;;
80201;SDS011;69521;54.454;9.928;2023-05-10T06:30:00;4.70;;;2.70;;
80201;SDS011;69521;54.454;9.928;2023-05-10T06:32:27;5.03;;;2.78;;
80201;SDS011;69521;54.454;9.928;2023-05-10T06:34:53;4.47;;;3.03;;
80201;SDS011;69521;54.454;9.928;2023-05-10T06:37:18;7.78;;;3.40;;
80201;SDS011;69521;54.454;9.928;2023-05-10T06:39:43;3.60;;;2.70;;
80201;SDS011;69521;54.454;9.928;2023-05-10T06:42:09;4.13;;;2.80;;
80201;SDS011;69521;54.454;9.928;2023-05-10T06:44:35;5.63;;;2.40;;
80201;SDS011;69521;54.454;9.928;2023-05-10T06:47:02;5.05;;;3.28;;
80201;SDS011;69521;54.454;9.928;2023-05-10T06:49:28;5.03;;;2.85;;
80201;SDS011;69521;54.454;9.928;2023-05-10T06:51:54;5.30;;;2.80;;
80201;SDS011;69521;54.454;9.928;2023-05-10T06:54:20;4.80;;;2.85;;
80201;SDS011;69521;54.454;9.928;2023-05-10T06:56:45;3.95;;;2.30;;
80201;SDS011;69521;54.454;9.928;2023-05-10T06:59:11;5.38;;;2.40;;
80201;SDS011;69521;54.454;9.928;2023-05-10T07:01:38;6.55;;;3.00;;
80201;SDS011;69521;54.454;9.928;2023-05-10T07:04:03;5.38;;;2.47;;
80201;SDS011;69521;54.454;9.928;2023-05-10T07:06:29;3.58;;;2.53;;
80201;SDS011;69521;54.454;9.928;2023-05-10T07:08:54;5.22;;;2.38;;
80201;SDS011;69521;54.454;9.928;2023-05-10T07:11:20;6.78;;;2.90;;
80201;SDS011;69521;54.454;9.928;2023-05-10T07:13:45;8.05;;;3.35;;
80201;SDS011;69521;54.454;9.928;2023-05-10T07:16:11;4.43;;;3.03;;
80201;SDS011;69521;54.454;9.928;2023-05-10T07:18:37;6.45;;;3.05;;
80201;SDS011;69521;54.454;9.928;2023-05-10T07:21:02;4.65;;;2.78;;
80201;SDS011;69521;54.454;9.928;2023-05-10T07:23:28;4.00;;;2.83;;
80201;SDS011;69521;54.454;9.928;2023-05-10T07:25:54;4.28;;;2.58;;
80201;SDS011;69521;54.454;9.928;2023-05-10T07:28:19;5.78;;;2.83;;
80201;SDS011;69521;54.454;9.928;2023-05-10T07:30:45;5.65;;;2.88;;
80201;SDS011;69521;54.454;9.928;2023-05-10T07:33:11;5.97;;;3.00;;
80201;SDS011;69521;54.454;9.928;2023-05-10T07:35:38;7.93;;;3.13;;
80201;SDS011;69521;54.454;9.928;2023-05-10T07:38:03;3.80;;;2.85;;
80201;SDS011;69521;54.454;9.928;2023-05-10T07:40:29;4.13;;;2.92;;
80201;SDS011;69521;54.454;9.928;2023-05-10T07:42:55;6.70;;;3.08;;
80201;SDS011;69521;54.454;9.928;2023-05-10T07:45:21;5.35;;;2.78;;
80201;SDS011;69521;54.454;9.928;2023-05-10T07:47:47;4.10;;;2.80;;
80201;SDS011;69521;54.454;9.928;2023-05-10T07:50:12;4.82;;;2.40;;
80201;SDS011;69521;54.454;9.928;2023-05-10T07:52:39;5.18;;;3.20;;
80201;SDS011;69521;54.454;9.928;2023-05-10T07:55:05;6.38;;;3.22;;
80201;SDS011;69521;54.454;9.928;2023-05-10T07:57:32;4.35;;;2.75;;
80201;SDS011;69521;54.454;9.928;2023-05-10T07:59:58;6.22;;;2.88;;
80201;SDS011;69521;54.454;9.928;2023-05-10T08:02:23;4.40;;;2.58;;
80201;SDS011;69521;54.454;9.928;2023-05-10T08:04:49;3.95;;;2.67;;
80201;SDS011;69521;54.454;9.928;2023-05-10T08:07:14;5.30;;;3.00;;
80201;SDS011;69521;54.454;9.928;2023-05-10T08:09:39;2.95;;;2.40;;
80201;SDS011;69521;54.454;9.928;2023-05-10T08:12:05;5.70;;;3.78;;
80201;SDS011;69521;54.454;9.928;2023-05-10T08:14:30;4.53;;;3.28;;
80201;SDS011;69521;54.454;9.928;2023-05-10T08:16:56;5.60;;;3.00;;
80201;SDS011;69521;54.454;9.928;2023-05-10T08:19:21;5.30;;;2.80;;
80201;SDS011;69521;54.454;9.928;2023-05-10T08:21:47;3.83;;;2.42;;
80201;SDS011;69521;54.454;9.928;2023-05-10T08:24:13;4.47;;;2.55;;
80201;SDS011;69521;54.454;9.928;2023-05-10T08:26:38;5.65;;;3.25;;
80201;SDS011;69521;54.454;9.928;2023-05-10T08:29:04;4.57;;;3.05;;
80201;SDS011;69521;54.454;9.928;2023-05-10T08:31:29;5.72;;;3.70;;
80201;SDS011;69521;54.454;9.928;2023-05-10T08:33:55;4.63;;;3.60;;
80201;SDS011;69521;54.454;9.928;2023-05-10T08:36:20;4.55;;;3.47;;
80201;SDS011;69521;54.454;9.928;2023-05-10T08:38:52;5.63;;;3.10;;
80201;SDS011;69521;54.454;9.928;2023-05-10T08:41:22;5.28;;;3.10;;
80201;SDS011;69521;54.454;9.928;2023-05-10T08:43:52;5.00;;;3.10;;
80201;SDS011;69521;54.454;9.928;2023-05-10T08:46:18;8.35;;;3.10;;
80201;SDS011;69521;54.454;9.928;2023-05-10T08:48:45;4.88;;;3.03;;
80201;SDS011;69521;54.454;9.928;2023-05-10T08:51:17;6.25;;;3.15;;
80201;SDS011;69521;54.454;9.928;2023-05-10T08:53:43;5.43;;;3.28;;
80201;SDS011;69521;54.454;9.928;2023-05-10T08:56:09;4.68;;;3.33;;
80201;SDS011;69521;54.454;9.928;2023-05-10T08:58:35;4.22;;;3.45;;
80201;SDS011;69521;54.454;9.928;2023-05-10T09:01:02;4.22;;;2.72;;
80201;SDS011;69521;54.454;9.928;2023-05-10T09:03:29;4.72;;;3.20;;
80201;SDS011;69521;54.454;9.928;2023-05-10T09:05:55;4.65;;;3.33;;
80201;SDS011;69521;54.454;9.928;2023-05-10T09:08:23;6.32;;;3.47;;
80201;SDS011;69521;54.454;9.928;2023-05-10T09:10:51;5.18;;;2.92;;
80201;SDS011;69521;54.454;9.928;2023-05-10T09:13:17;6.70;;;3.60;;
80201;SDS011;69521;54.454;9.928;2023-05-10T09:15:44;5.63;;;3.42;;
80201;SDS011;69521;54.454;9.928;2023-05-10T09:18:10;5.47;;;3.25;;
80201;SDS011;69521;54.454;9.928;2023-05-10T09:20:36;5.43;;;3.80;;
80201;SDS011;69521;54.454;9.928;2023-05-10T09:23:01;7.90;;;3.50;;
80201;SDS011;69521;54.454;9.928;2023-05-10T09:25:27;5.90;;;3.65;;
80201;SDS011;69521;54.454;9.928;2023-05-10T09:27:52;5.78;;;3.85;;
80201;SDS011;69521;54.454;9.928;2023-05-10T09:30:25;5.10;;;3.42;;
80201;SDS011;69521;54.454;9.928;2023-05-10T09:32:52;7.57;;;3.08;;
80201;SDS011;69521;54.454;9.928;2023-05-10T09:35:18;6.90;;;2.92;;
80201;SDS011;69521;54.454;9.928;2023-05-10T09:37:47;4.25;;;3.22;;
80201;SDS011;69521;54.454;9.928;2023-05-10T09:40:18;4.72;;;3.00;;
80201;SDS011;69521;54.454;9.928;2023-05-10T09:42:52;6.15;;;3.10;;
80201;SDS011;69521;54.454;9.928;2023-05-10T09:45:19;6.63;;;3.25;;
80201;SDS011;69521;54.454;9.928;2023-05-10T09:47:45;5.25;;;3.17;;
80201;SDS011;69521;54.454;9.928;2023-05-10T09:50:10;7.10;;;3.20;;
80201;SDS011;69521;54.454;9.928;2023-05-10T09:52:45;5.32;;;3.60;;
80201;SDS011;69521;54.454;9.928;2023-05-10T09:55:24;5.10;;;3.15;;
80201;SDS011;69521;54.454;9.928;2023-05-10T09:58:00;5.93;;;3.20;;
80201;SDS011;69521;54.454;9.928;2023-05-10T10:00:27;5.38;;;3.28;;
80201;SDS011;69521;54.454;9.928;2023-05-10T10:02:56;6.18;;;3.83;;
80201;SDS011;69521;54.454;9.928;2023-05-10T10:07:56;5.20;;;3.53;;
80201;SDS011;69521;54.454;9.928;2023-05-10T10:10:23;3.88;;;3.05;;
80201;SDS011;69521;54.454;9.928;2023-05-10T10:12:52;5.00;;;3.38;;
80201;SDS011;69521;54.454;9.928;2023-05-10T10:15:18;7.03;;;3.58;;
80201;SDS011;69521;54.454;9.928;2023-05-10T10:17:45;5.57;;;3.10;;
80201;SDS011;69521;54.454;9.928;2023-05-10T10:20:12;6.55;;;2.85;;
80201;SDS011;69521;54.454;9.928;2023-05-10T10:22:39;4.05;;;3.08;;
80201;SDS011;69521;54.454;9.928;2023-05-10T10:25:04;6.30;;;2.95;;
80201;SDS011;69521;54.454;9.928;2023-05-10T10:36:15;6.28;;;3.10;;
80201;SDS011;69521;54.454;9.928;2023-05-10T10:49:49;5.47;;;3.13;;
80201;SDS011;69521;54.454;9.928;2023-05-10T10:52:22;5.47;;;3.90;;
80201;SDS011;69521;54.454;9.928;2023-05-10T10:55:02;5.07;;;3.30;;
80201;SDS011;69521;54.454;9.928;2023-05-10T10:57:31;5.80;;;3.60;;
80201;SDS011;69521;54.454;9.928;2023-05-10T11:02:45;6.40;;;4.25;;
80201;SDS011;69521;54.454;9.928;2023-05-10T11:05:33;5.70;;;3.25;;
80201;SDS011;69521;54.454;9.928;2023-05-10T11:08:15;9.10;;;3.58;;
80201;SDS011;69521;54.454;9.928;2023-05-10T11:13:21;5.80;;;3.40;;
80201;SDS011;69521;54.454;9.928;2023-05-10T11:19:02;6.50;;;3.10;;
80201;SDS011;69521;54.454;9.928;2023-05-10T11:21:29;7.05;;;3.85;;
80201;SDS011;69521;54.454;9.928;2023-05-10T11:23:56;8.68;;;3.53;;
80201;SDS011;69521;54.454;9.928;2023-05-10T11:26:29;6.05;;;3.60;;
80201;SDS011;69521;54.454;9.928;2023-05-10T11:28:56;4.38;;;3.33;;
80201;SDS011;69521;54.454;9.928;2023-05-10T11:31:22;4.78;;;3.40;;
80201;SDS011;69521;54.454;9.928;2023-05-10T11:33:51;9.52;;;3.78;;
80201;SDS011;69521;54.454;9.928;2023-05-10T11:36:19;5.80;;;3.08;;
80201;SDS011;69521;54.454;9.928;2023-05-10T11:38:46;9.52;;;3.70;;
80201;SDS011;69521;54.454;9.928;2023-05-10T11:41:12;4.72;;;2.85;;
80201;SDS011;69521;54.454;9.928;2023-05-10T11:43:38;4.93;;;3.88;;
80201;SDS011;69521;54.454;9.928;2023-05-10T11:46:05;6.45;;;4.05;;
80201;SDS011;69521;54.454;9.928;2023-05-10T11:48:31;6.53;;;3.80;;
80201;SDS011;69521;54.454;9.928;2023-05-10T11:50:57;6.50;;;3.28;;
80201;SDS011;69521;54.454;9.928;2023-05-10T11:53:23;5.40;;;3.40;;
80201;SDS011;69521;54.454;9.928;2023-05-10T11:55:52;8.35;;;3.78;;
80201;SDS011;69521;54.454;9.928;2023-05-10T11:58:23;4.97;;;3.83;;
80201;SDS011;69521;54.454;9.928;2023-05-10T12:00:59;5.93;;;3.70;;
80201;SDS011;69521;54.454;9.928;2023-05-10T12:03:26;5.13;;;3.75;;
80201;SDS011;69521;54.454;9.928;2023-05-10T12:05:52;5.75;;;3.38;;
80201;SDS011;69521;54.454;9.928;2023-05-10T12:08:25;8.50;;;4.32;;
80201;SDS011;69521;54.454;9.928;2023-05-10T12:10:52;5.70;;;3.83;;
80201;SDS011;69521;54.454;9.928;2023-05-10T12:13:19;6.35;;;3.53;;
80201;SDS011;69521;54.454;9.928;2023-05-10T12:15:46;9.68;;;4.43;;
80201;SDS011;69521;54.454;9.928;2023-05-10T12:18:12;16.92;;;4.13;;
80201;SDS011;69521;54.454;9.928;2023-05-10T12:20:38;7.35;;;3.83;;
80201;SDS011;69521;54.454;9.928;2023-05-10T12:23:04;7.65;;;4.50;;
80201;SDS011;69521;54.454;9.928;2023-05-10T12:25:31;5.80;;;4.47;;
80201;SDS011;69521;54.454;9.928;2023-05-10T12:28:02;6.88;;;5.15;;
80201;SDS011;69521;54.454;9.928;2023-05-10T12:30:30;6.43;;;4.47;;
80201;SDS011;69521;54.454;9.928;2023-05-10T12:33:00;9.48;;;4.95;;
80201;SDS011;69521;54.454;9.928;2023-05-10T12:35:32;5.82;;;4.32;;
80201;SDS011;69521;54.454;9.928;2023-05-10T12:37:58;10.32;;;6.18;;
80201;SDS011;69521;54.454;9.928;2023-05-10T12:40:23;10.80;;;5.85;;
80201;SDS011;69521;54.454;9.928;2023-05-10T12:42:49;10.23;;;5.85;;
80201;SDS011;69521;54.454;9.928;2023-05-10T12:45:16;9.80;;;6.47;;
80201;SDS011;69521;54.454;9.928;2023-05-10T12:47:42;10.90;;;6.95;;
80201;SDS011;69521;54.454;9.928;2023-05-10T12:50:08;11.75;;;8.05;;
80201;SDS011;69521;54.454;9.928;2023-05-10T12:52:34;13.40;;;7.55;;
80201;SDS011;69521;54.454;9.928;2023-05-10T12:54:59;9.73;;;7.43;;
80201;SDS011;69521;54.454;9.928;2023-05-10T12:57:25;9.73;;;7.53;;
80201;SDS011;69521;54.454;9.928;2023-05-10T12:59:50;9.88;;;7.78;;
80201;SDS011;69521;54.454;9.928;2023-05-10T13:02:16;15.27;;;8.25;;
80201;SDS011;69521;54.454;9.928;2023-05-10T13:04:43;10.70;;;7.50;;
80201;SDS011;69521;54.454;9.928;2023-05-10T13:07:09;15.45;;;9.20;;
80201;SDS011;69521;54.454;9.928;2023-05-10T13:09:35;12.55;;;8.35;;
80201;SDS011;69521;54.454;9.928;2023-05-10T13:12:00;11.35;;;7.28;;
80201;SDS011;69521;54.454;9.928;2023-05-10T13:14:26;11.85;;;8.68;;
80201;SDS011;69521;54.454;9.928;2023-05-10T13:16:51;13.35;;;8.90;;
80201;SDS011;69521;54.454;9.928;2023-05-10T13:19:17;10.50;;;7.65;;
80201;SDS011;69521;54.454;9.928;2023-05-10T13:21:43;13.00;;;8.50;;
80201;SDS011;69521;54.454;9.928;2023-05-10T13:24:09;13.23;;;8.80;;
80201;SDS011;69521;54.454;9.928;2023-05-10T13:26:35;14.50;;;9.15;;
80201;SDS011;69521;54.454;9.928;2023-05-10T13:29:02;13.30;;;8.40;;
80201;SDS011;69521;54.454;9.928;2023-05-10T13:31:28;13.75;;;9.32;;
80201;SDS011;69521;54.454;9.928;2023-05-10T13:33:53;14.27;;;8.80;;
80201;SDS011;69521;54.454;9.928;2023-05-10T13:36:18;12.80;;;8.63;;
80201;SDS011;69521;54.454;9.928;2023-05-10T13:38:44;11.32;;;8.60;;
80201;SDS011;69521;54.454;9.928;2023-05-10T13:41:09;15.05;;;9.52;;
80201;SDS011;69521;54.454;9.928;2023-05-10T13:43:35;11.90;;;9.18;;
80201;SDS011;69521;54.454;9.928;2023-05-10T13:46:01;11.63;;;9.15;;
80201;SDS011;69521;54.454;9.928;2023-05-10T13:48:26;14.70;;;8.35;;
80201;SDS011;69521;54.454;9.928;2023-05-10T13:50:52;13.50;;;9.00;;
80201;SDS011;69521;54.454;9.928;2023-05-10T13:53:17;11.43;;;8.43;;
80201;SDS011;69521;54.454;9.928;2023-05-10T13:55:43;14.48;;;8.45;;
80201;SDS011;69521;54.454;9.928;2023-05-10T13:58:08;10.75;;;7.57;;
80201;SDS011;69521;54.454;9.928;2023-05-10T14:00:33;11.43;;;9.07;;
80201;SDS011;69521;54.454;9.928;2023-05-10T14:02:58;14.32;;;9.27;;
80201;SDS011;69521;54.454;9.928;2023-05-10T14:05:24;15.50;;;9.20;;
80201;SDS011;69521;54.454;9.928;2023-05-10T14:07:50;11.80;;;8.88;;
80201;SDS011;69521;54.454;9.928;2023-05-10T14:10:15;13.75;;;9.45;;
80201;SDS011;69521;54.454;9.928;2023-05-10T14:12:41;14.25;;;8.73;;
80201;SDS011;69521;54.454;9.928;2023-05-10T14:15:06;13.73;;;9.23;;
80201;SDS011;69521;54.454;9.928;2023-05-10T14:17:32;15.02;;;7.72;;
80201;SDS011;69521;54.454;9.928;2023-05-10T14:19:57;15.98;;;10.32;;
80201;SDS011;69521;54.454;9.928;2023-05-10T14:22:23;14.63;;;9.63;;
80201;SDS011;69521;54.454;9.928;2023-05-10T14:24:48;14.13;;;9.07;;
80201;SDS011;69521;54.454;9.928;2023-05-10T14:27:15;12.80;;;9.70;;
80201;SDS011;69521;54.454;9.928;2023-05-10T14:29:40;12.88;;;7.82;;
80201;SDS011;69521;54.454;9.928;2023-05-10T14:32:06;14.18;;;8.18;;
80201;SDS011;69521;54.454;9.928;2023-05-10T14:34:32;14.10;;;8.07;;
80201;SDS011;69521;54.454;9.928;2023-05-10T14:36:57;12.23;;;8.07;;
80201;SDS011;69521;54.454;9.928;2023-05-10T14:39:23;11.85;;;8.95;;
80201;SDS011;69521;54.454;9.928;2023-05-10T14:41:48;11.85;;;9.93;;
80201;SDS011;69521;54.454;9.928;2023-05-10T14:44:14;12.55;;;9.15;;
80201;SDS011;69521;54.454;9.928;2023-05-10T14:46:40;12.18;;;9.38;;
80201;SDS011;69521;54.454;9.928;2023-05-10T14:49:06;12.18;;;8.68;;
80201;SDS011;69521;54.454;9.928;2023-05-10T14:51:32;14.68;;;9.52;;
80201;SDS011;69521;54.454;9.928;2023-05-10T14:53:57;11.95;;;9.43;;
80201;SDS011;69521;54.454;9.928;2023-05-10T14:56:23;13.27;;;9.18;;
80201;SDS011;69521;54.454;9.928;2023-05-10T14:58:49;14.57;;;10.00;;
80201;SDS011;69521;54.454;9.928;2023-05-10T15:01:14;12.02;;;9.77;;
80201;SDS011;69521;54.454;9.928;2023-05-10T15:03:40;12.95;;;9.90;;
80201;SDS011;69521;54.454;9.928;2023-05-10T15:06:05;12.73;;;8.77;;
80201;SDS011;69521;54.454;9.928;2023-05-10T15:08:31;13.65;;;9.60;;
80201;SDS011;69521;54.454;9.928;2023-05-10T15:10:56;11.48;;;8.75;;
80201;SDS011;69521;54.454;9.928;2023-05-10T15:13:21;13.60;;;9.13;;
80201;SDS011;69521;54.454;9.928;2023-05-10T15:15:47;10.02;;;7.68;;
80201;SDS011;69521;54.454;9.928;2023-05-10T15:18:12;12.98;;;8.95;;
80201;SDS011;69521;54.454;9.928;2023-05-10T15:20:38;10.73;;;8.07;;
80201;SDS011;69521;54.454;9.928;2023-05-10T15:23:03;10.48;;;8.23;;
80201;SDS011;69521;54.454;9.928;2023-05-10T15:25:28;9.63;;;7.18;;
80201;SDS011;69521;54.454;9.928;2023-05-10T15:27:59;10.57;;;8.13;;
80201;SDS011;69521;54.454;9.928;2023-05-10T15:30:24;11.77;;;7.82;;
80201;SDS011;69521;54.454;9.928;2023-05-10T15:32:49;12.38;;;7.22;;
80201;SDS011;69521;54.454;9.928;2023-05-10T15:35:15;8.00;;;6.43;;